M I D A S
Marine Information and Data Acquisition System
Tripno 426 of the Zeeleeuw from 2003-02-07 07:51:14 to 2003-02-07 13:05:54
Back to CruiseResearch ActivitiesStationsMapUnderway DataData graphs

EquipmentUnitsComment
TimeDGPSUTC
LatitudeDGPSDM.mWGS84
LongitudeDGPSDM.mWGS84
HeadingGyrodeg 
SOGDGPSknotsSpeed over ground
COGDGPSdegCourse over ground
DepthEcho soundermeters200 kHz
Missing or incorrect values are displayed as -999
Navigation data collected by the RV Zeeleeuw from 2003-02-07 07:51:14 to 2003-02-07 13:05:54
Time Latitude Longitude Heading SOG COG Depth
2003-02-07 07:52:16 51°13.647 2°55.937 107.1 3.8 285.9 -999
2003-02-07 07:53:16 51°13.662 2°55.86 107.2 3.1 288.1 -999
2003-02-07 07:54:16 51°13.674 2°55.778 93.8 2.9 278.7 -999
2003-02-07 07:55:15 51°13.678 2°55.749 53.6 0.7 20.1 11.4
2003-02-07 07:56:16 51°13.707 2°55.749 347 2.5 343.7 -999
2003-02-07 07:57:15 51°13.76 2°55.692 332 4.7 326.9 10
2003-02-07 07:58:15 51°13.839 2°55.624 339.6 5.8 335.7 -999
2003-02-07 07:59:13 51°13.929 2°55.562 339.8 6.2 335.7 9.5
2003-02-07 08:00:15 51°14.027 2°55.492 339.3 6.3 335.8 9.5
2003-02-07 08:01:15 51°14.123 2°55.419 336.7 6.5 333.1 9.4
2003-02-07 08:02:16 51°14.214 2°55.324 328.5 6.5 324.5 -999
2003-02-07 08:03:15 51°14.29 2°55.205 312.8 6.5 309.8 -999
2003-02-07 08:04:15 51°14.356 2°55.062 308.4 7 304.3 10.3
2003-02-07 08:05:14 51°14.392 2°54.878 280.3 7.8 275.8 10.7
2003-02-07 08:06:14 51°14.402 2°54.669 273.7 7.1 269.9 10.8
2003-02-07 08:07:15 51°14.382 2°54.526 250.2 4.7 251.4 10.3
2003-02-07 08:08:14 51°14.354 2°54.438 240.8 3.3 241 9.7
2003-02-07 08:09:14 51°14.33 2°54.371 242.9 2.7 241.3 9.4
2003-02-07 08:10:15 51°14.311 2°54.312 249 2.3 244.8 9.3
2003-02-07 08:11:15 51°14.276 2°54.184 250.7 9.3 246.7 9.1
2003-02-07 08:12:13 51°14.213 2°53.893 252.5 13 249.1 8.8
2003-02-07 08:13:15 51°14.104 2°53.577 238.6 13.2 236.4 8.9
2003-02-07 08:14:15 51°13.984 2°53.281 240.1 13.3 237.4 9.5
2003-02-07 08:15:13 51°13.879 2°52.983 248.4 13.4 244.9 9.6
2003-02-07 08:16:15 51°13.781 2°52.651 246.8 13.4 243.8 9.8
2003-02-07 08:17:14 51°13.671 2°52.352 239.7 13.3 237.1 10.3
2003-02-07 08:18:15 51°13.558 2°52.042 247.6 13.3 242.1 10.1
2003-02-07 08:19:15 51°13.461 2°51.726 244.1 13.3 241.2 10.3
2003-02-07 08:20:15 51°13.344 2°51.43 231.3 13.1 230.5 10.3
2003-02-07 08:21:15 51°13.229 2°51.131 241.6 13.3 238.7 10.2
2003-02-07 08:22:15 51°13.114 2°50.829 242.1 13.3 239.2 10.3
2003-02-07 08:23:15 51°13 2°50.525 241.8 13.4 239.2 10.4
2003-02-07 08:24:15 51°12.885 2°50.222 241.6 13.3 238.8 10.4
2003-02-07 08:25:15 51°12.771 2°49.917 242.1 13.4 239.3 10.4
2003-02-07 08:26:14 51°12.66 2°49.617 241.6 13.4 239.1 10.3
2003-02-07 08:27:15 51°12.545 2°49.307 242.1 13.4 239.6 10.4
2003-02-07 08:28:15 51°12.432 2°49.001 242.1 13.3 239.8 10.5
2003-02-07 08:29:15 51°12.323 2°48.695 243.2 13.3 240.6 10.4
2003-02-07 08:30:15 51°12.213 2°48.387 244.2 13.3 240.8 10.4
2003-02-07 08:31:15 51°12.111 2°48.073 245.3 13.3 242.5 10.5
2003-02-07 08:32:15 51°12.008 2°47.76 245.1 13.4 242.2 10.6
2003-02-07 08:33:14 51°11.907 2°47.451 245.4 13.4 242.4 10.5
2003-02-07 08:34:14 51°11.817 2°47.127 250.5 13.4 247.3 10.5
2003-02-07 08:35:15 51°11.729 2°46.791 250.6 13.5 247.6 10.5
2003-02-07 08:36:15 51°11.644 2°46.461 250.4 13.5 247.3 10.9
2003-02-07 08:37:14 51°11.559 2°46.137 250.4 13.5 247.4 11
2003-02-07 08:38:11 51°11.476 2°45.822 250.4 13.5 247.5 10.9
2003-02-07 08:39:15 51°11.385 2°45.468 250.4 13.6 247.8 10.7
2003-02-07 08:40:14 51°11.3 2°45.141 250.6 13.6 247.7 10.8
2003-02-07 08:41:15 51°11.213 2°44.804 250.8 13.6 247.7 10.6
2003-02-07 08:42:15 51°11.126 2°44.472 250.7 13.6 247.8 10.6
2003-02-07 08:43:15 51°11.047 2°44.136 254.2 13.5 251.1 10.7
2003-02-07 08:44:15 51°10.972 2°43.799 253.5 13.4 250.5 10.6
2003-02-07 08:45:14 51°10.893 2°43.45 253.3 14.5 250.5 10.2
2003-02-07 08:46:14 51°10.813 2°43.082 253.8 14.7 251 10.5
2003-02-07 08:47:15 51°10.735 2°42.706 255.5 14.7 252.6 10.7
2003-02-07 08:48:14 51°10.663 2°42.339 255.6 14.8 252.7 10.6
2003-02-07 08:49:16 51°10.587 2°41.953 255.4 14.8 252.9 10.6
2003-02-07 08:50:16 51°10.515 2°41.581 255.7 14.8 253.1 10.8
2003-02-07 08:51:16 51°10.443 2°41.207 255.4 14.8 252.9 10.8
2003-02-07 08:52:15 51°10.372 2°40.839 254.9 14.8 252.6 11.1
2003-02-07 08:53:16 51°10.298 2°40.457 255.4 14.8 253 11.1
2003-02-07 08:54:16 51°10.226 2°40.08 255.4 14.9 253.1 11.1
2003-02-07 08:55:16 51°10.154 2°39.704 255.4 14.8 253.2 11.7
2003-02-07 08:56:23 51°10.074 2°39.285 254.6 14.9 252.2 12.3
2003-02-07 08:57:32 51°9.997 2°38.848 257.6 14.9 255.1 13.1
2003-02-07 08:58:37 51°9.926 2°38.434 257.5 15 254.6 13.7
2003-02-07 08:59:36 51°9.866 2°38.087 255 11.8 254.5 14.6
2003-02-07 09:00:35 51°9.783 2°37.968 205.5 6 210.8 14.3
2003-02-07 09:01:37 51°9.745 2°37.837 280.7 5.2 268.8 14.4
2003-02-07 09:02:35 51°9.785 2°37.748 357.1 3.8 334.6 15.2
2003-02-07 09:03:35 51°9.825 2°37.775 74.6 2.6 67.5 15
2003-02-07 09:04:37 51°9.837 2°37.862 70.4 3.7 67.7 15.3
2003-02-07 09:05:36 51°9.86 2°37.955 77.2 3.5 73.1 15.2
2003-02-07 09:06:36 51°9.873 2°38.009 76.7 1.3 68.7 14.9
2003-02-07 09:07:36 51°9.877 2°38.034 81.4 0.9 81.3 14.8
2003-02-07 09:08:36 51°9.878 2°38.053 83.8 0.6 87.6 14.9
2003-02-07 09:09:37 51°9.878 2°38.067 86.7 0.4 91.9 14.9
2003-02-07 09:10:37 51°9.877 2°38.077 91.4 0.3 111.5 14.7
2003-02-07 09:11:37 51°9.874 2°38.084 97.8 0.3 132.8 14.8
2003-02-07 09:12:37 51°9.869 2°38.088 103.9 0.3 150.6 14.7
2003-02-07 09:13:36 51°9.865 2°38.09 110.1 0.3 179.9 14.5
2003-02-07 09:14:36 51°9.858 2°38.088 118.6 0.5 195.7 14.5
2003-02-07 09:15:37 51°9.85 2°38.083 125.4 0.6 205.4 14.3
2003-02-07 09:16:36 51°9.841 2°38.074 131.2 0.6 213.3 14.3
2003-02-07 09:17:36 51°9.832 2°38.065 134.1 0.6 215.9 14.2
2003-02-07 09:18:37 51°9.824 2°38.052 138.6 0.7 221 14.2
2003-02-07 09:19:37 51°9.816 2°38.039 143.5 0.7 224.5 14.2
2003-02-07 09:20:36 51°9.806 2°38.024 149.4 0.8 227.9 14.1
2003-02-07 09:21:36 51°9.797 2°38.007 155.3 0.9 229.4 14
2003-02-07 09:22:37 51°9.786 2°37.988 162.8 0.9 229.9 14.1
2003-02-07 09:23:36 51°9.776 2°37.969 166.8 0.9 233 14
2003-02-07 09:24:36 51°9.767 2°37.949 171.5 1 233.6 13.9
2003-02-07 09:25:36 51°9.757 2°37.928 177.8 1 235.2 13.9
2003-02-07 09:26:35 51°9.748 2°37.907 181.7 1 238.7 13.9
2003-02-07 09:27:37 51°9.74 2°37.882 185.9 1 238.9 13.9
2003-02-07 09:28:37 51°9.71 2°37.846 203.4 4.7 208.6 13.8
2003-02-07 09:29:37 51°9.641 2°37.621 266.4 12.4 262.3 13.7
2003-02-07 09:30:36 51°9.637 2°37.243 273.3 15 270 14.9
2003-02-07 09:31:37 51°9.636 2°36.837 274.7 15.1 269 15
2003-02-07 09:32:37 51°9.635 2°36.435 274.9 15.2 269.7 15.2
2003-02-07 09:33:36 51°9.658 2°36.048 291.8 14.8 285.1 15.9
2003-02-07 09:34:37 51°9.776 2°35.708 319.6 14.5 310.6 17.1
2003-02-07 09:35:35 51°9.959 2°35.491 344 14.1 334 14.9
2003-02-07 09:36:37 51°10.183 2°35.4 6 13.3 358.2 9.7
2003-02-07 09:37:37 51°10.401 2°35.455 26.4 13.2 18.9 9.4
2003-02-07 09:38:37 51°10.603 2°35.584 28 13.2 21.4 8.8
2003-02-07 09:39:37 51°10.787 2°35.767 39.5 13.1 33.4 8.9
2003-02-07 09:40:37 51°10.958 2°35.981 45.7 13.1 39.7 9.3
2003-02-07 09:41:36 51°11.126 2°36.197 44.3 13.2 38.6 9.7
2003-02-07 09:42:36 51°11.291 2°36.425 47.4 13.2 41.8 10
2003-02-07 09:43:37 51°11.458 2°36.66 47.5 13.2 41 10.3
2003-02-07 09:44:36 51°11.621 2°36.883 47.1 13.1 40.6 10.4
2003-02-07 09:45:37 51°11.789 2°37.113 46.5 13 40.1 10.9
2003-02-07 09:46:37 51°11.954 2°37.339 47.1 13.1 41.3 11
2003-02-07 09:47:36 51°12.116 2°37.557 46.1 13 40.2 11.4
2003-02-07 09:48:37 51°12.284 2°37.785 47.1 13 41.1 11.5
2003-02-07 09:49:37 51°12.458 2°37.986 39.3 13.1 32.9 11.6
2003-02-07 09:50:36 51°12.64 2°38.168 39 13.1 32.3 11.9
2003-02-07 09:51:37 51°12.827 2°38.351 38.5 13 31.5 12.1
2003-02-07 09:52:36 51°13.009 2°38.53 39.5 13 31.9 12.4
2003-02-07 09:53:37 51°13.197 2°38.715 39.9 13.1 32.1 12.7
2003-02-07 09:54:37 51°13.389 2°38.873 35 13.1 26.4 11.6
2003-02-07 09:55:36 51°13.582 2°39.028 34.8 13.3 26.4 12.5
2003-02-07 09:56:37 51°13.791 2°39.159 25.3 13.3 16.6 12.9
2003-02-07 09:57:37 51°14.01 2°39.081 346 14.1 337.2 12.3
2003-02-07 09:58:37 51°14.214 2°38.893 335.9 14.4 327.8 11.5
2003-02-07 09:59:35 51°14.388 2°38.653 308.5 14.5 301.6 16.4
2003-02-07 10:00:35 51°14.381 2°38.292 243.1 14.3 241.8 16.6
2003-02-07 10:01:37 51°14.242 2°37.951 240.2 14.9 238.4 17.2
2003-02-07 10:02:36 51°14.12 2°37.61 242 15.1 240.3 18.2
2003-02-07 10:03:37 51°13.995 2°37.256 242.1 15.1 240.6 18.4
2003-02-07 10:04:37 51°13.875 2°36.903 244.1 15.1 242.4 18.8
2003-02-07 10:05:37 51°13.76 2°36.548 244.2 15.1 242.5 18.6
2003-02-07 10:06:37 51°13.644 2°36.193 244.4 15.1 242.5 16.4
2003-02-07 10:07:37 51°13.528 2°35.84 243.8 15 241.8 16
2003-02-07 10:08:37 51°13.41 2°35.487 244.2 15 242 16.1
2003-02-07 10:09:36 51°13.293 2°35.143 243.9 14.9 241.5 15.3
2003-02-07 10:10:40 51°13.169 2°34.771 244.2 14.9 241.1 16
2003-02-07 10:11:40 51°13.053 2°34.419 246.3 15 243.1 15.3
2003-02-07 10:12:40 51°12.939 2°34.066 246.3 14.9 243 15.1
2003-02-07 10:13:40 51°12.831 2°33.71 248.6 14.9 245.1 13.5
2003-02-07 10:14:40 51°12.724 2°33.351 248.5 15 244.9 16.5
2003-02-07 10:15:40 51°12.618 2°32.992 248.5 15 244.4 14.1
2003-02-07 10:16:40 51°12.51 2°32.633 248.2 15 244 15.6
2003-02-07 10:17:39 51°12.401 2°32.281 247.9 15 243.7 17
2003-02-07 10:18:38 51°12.293 2°31.93 248.4 15 243.9 18.7
2003-02-07 10:19:40 51°12.177 2°31.561 248.4 15 243.8 19.8
2003-02-07 10:20:40 51°12.065 2°31.204 248.2 15 243.7 20.4
2003-02-07 10:21:40 51°11.955 2°30.848 248.2 15.1 243.5 21.5
2003-02-07 10:22:40 51°11.846 2°30.487 251.3 15.1 246.2 21.3
2003-02-07 10:23:39 51°11.751 2°30.123 252.5 15.2 247.3 21.7
2003-02-07 10:24:39 51°11.658 2°29.747 254.3 15.3 249.1 21.8
2003-02-07 10:25:39 51°11.569 2°29.368 254.7 15.4 249.5 22.5
2003-02-07 10:26:38 51°11.481 2°28.992 254.9 15.4 249.9 22.4
2003-02-07 10:27:42 51°11.385 2°28.581 254.2 15.5 249.9 20.9
2003-02-07 10:28:42 51°11.298 2°28.19 254.5 15.6 250.5 21.4
2003-02-07 10:29:42 51°11.219 2°27.796 256.4 15.6 252.6 20.8
2003-02-07 10:30:42 51°11.142 2°27.402 256.2 15.6 252.6 22.5
2003-02-07 10:31:42 51°11.06 2°27.012 256.9 15.5 253.1 20.6
2003-02-07 10:32:42 51°10.982 2°26.621 255.6 15.5 252.1 20.1
2003-02-07 10:33:42 51°10.943 2°26.222 278 15.2 271.5 18.2
2003-02-07 10:34:42 51°11.004 2°25.838 301.7 14.9 292.7 14.4
2003-02-07 10:35:42 51°11.125 2°25.499 316.5 14.6 306.2 13.1
2003-02-07 10:36:45 51°11.321 2°25.251 343.4 14.1 331.2 21.1
2003-02-07 10:37:47 51°11.548 2°25.183 9.3 13.3 359.1 24.1
2003-02-07 10:38:51 51°11.767 2°25.296 36.9 12.9 29.7 23.3
2003-02-07 10:39:51 51°11.956 2°25.461 36 13 28.8 23.6
2003-02-07 10:40:57 51°12.163 2°25.641 34.9 12.7 29 24.1
2003-02-07 10:41:57 51°12.346 2°25.804 35.6 12.5 29.7 24.1
2003-02-07 10:43:02 51°12.545 2°25.979 34.8 12.6 29 24.1
2003-02-07 10:44:01 51°12.727 2°26.132 33.7 12.6 27.6 24.2
2003-02-07 10:45:02 51°12.911 2°26.304 41 12.5 35.1 24.3
2003-02-07 10:46:05 51°13.078 2°26.536 47.3 12.7 42.1 24.6
2003-02-07 10:47:05 51°13.23 2°26.77 49.4 12.6 44.6 24.6
2003-02-07 10:48:11 51°13.399 2°27.029 49.1 12.9 44.6 25.1
2003-02-07 10:49:15 51°13.564 2°27.28 47.4 12.9 44.3 24.9
2003-02-07 10:50:15 51°13.716 2°27.517 49.2 12.8 44.8 24.5
2003-02-07 10:51:18 51°13.874 2°27.763 48.5 12.7 44.3 24.5
2003-02-07 10:52:17 51°14.021 2°27.995 48.6 12.8 44.4 25.3
2003-02-07 10:53:22 51°14.185 2°28.249 48.6 12.7 44.5 25.4
2003-02-07 10:54:25 51°14.344 2°28.494 47.9 12.6 44.2 26.1
2003-02-07 10:55:24 51°14.493 2°28.722 46.8 12.6 42.2 26.3
2003-02-07 10:56:25 51°14.653 2°28.947 45.9 12.6 42.2 26.4
2003-02-07 10:57:25 51°14.809 2°29.169 46 12.6 42.1 26.5
2003-02-07 10:58:35 51°14.99 2°29.426 45.7 12.4 42 26.7
2003-02-07 10:59:36 51°15.146 2°29.65 45.7 12.5 41.9 26.6
2003-02-07 11:00:37 51°15.308 2°29.864 44.1 12.4 38.4 26.6
2003-02-07 11:01:37 51°15.469 2°30.072 43.5 12.5 38.2 26.7
2003-02-07 11:02:37 51°15.629 2°30.283 44.4 12.4 39.8 27
2003-02-07 11:03:36 51°15.785 2°30.487 43.9 12.4 39.1 27.4
2003-02-07 11:04:36 51°15.942 2°30.695 44.7 12.2 40 27.4
2003-02-07 11:05:36 51°16.099 2°30.904 44.2 12.5 39.4 27.5
2003-02-07 11:06:39 51°16.268 2°31.128 43.3 12.6 38.8 27.3
2003-02-07 11:07:40 51°16.429 2°31.341 43.4 12.2 39.5 27.5
2003-02-07 11:08:40 51°16.589 2°31.553 43.9 12.7 38.6 27.1
2003-02-07 11:09:50 51°16.779 2°31.803 44.6 12.6 39.6 26.2
2003-02-07 11:10:50 51°16.943 2°32.012 44.2 12.7 38.4 26.6
2003-02-07 11:11:50 51°17.106 2°32.216 43.5 12.3 37.4 26
2003-02-07 11:12:50 51°17.266 2°32.415 44.9 12.2 38.3 24.2
2003-02-07 11:13:50 51°17.426 2°32.612 43.8 12.3 37.1 26
2003-02-07 11:14:55 51°17.601 2°32.822 44.8 12.2 36 26.1
2003-02-07 11:15:59 51°17.773 2°33.032 44.5 12.4 36.7 23.8
2003-02-07 11:17:05 51°17.954 2°33.249 44.5 12.4 36.9 22.7
2003-02-07 11:18:15 51°18.143 2°33.48 44.9 12.3 39 20.9
2003-02-07 11:19:20 51°18.321 2°33.692 44.9 12.2 37.6 20.7
2003-02-07 11:20:27 51°18.501 2°33.914 44.9 12.3 38.2 16.5
2003-02-07 11:21:28 51°18.665 2°34.114 45.5 12.1 38.4 17.1
2003-02-07 11:22:32 51°18.836 2°34.325 44.7 12.3 37.9 16.8
2003-02-07 11:23:35 51°19.009 2°34.525 43.5 12.3 35.9 17.1
2003-02-07 11:24:40 51°19.186 2°34.734 44.5 12.2 36.2 16.1
2003-02-07 11:25:42 51°19.356 2°34.93 43.3 12.2 36.1 14.9
2003-02-07 11:26:42 51°19.525 2°35.12 43.7 12.4 35.8 17.1
2003-02-07 11:27:46 51°19.703 2°35.322 45 12.3 36.1 16.3
2003-02-07 11:28:45 51°19.868 2°35.512 44.2 12.4 36 16.4
2003-02-07 11:29:46 51°20.038 2°35.709 44.2 12.4 36.9 16.8
2003-02-07 11:30:45 51°20.202 2°35.902 44.7 12.5 35.4 17.8
2003-02-07 11:31:45 51°20.374 2°36.095 43 12.7 34.8 18.1
2003-02-07 11:32:46 51°20.513 2°36.336 62.7 12.3 57.9 19.6
2003-02-07 11:33:46 51°20.6 2°36.632 72.1 12.3 68.8 20.6
2003-02-07 11:34:46 51°20.67 2°36.939 73.8 12.3 70.5 21.6
2003-02-07 11:35:46 51°20.74 2°37.251 74.3 12.5 71.3 22.7
2003-02-07 11:36:47 51°20.793 2°37.577 81.4 12.5 78.3 23.6
2003-02-07 11:37:48 51°20.817 2°37.917 87 12.6 85.9 23.5
2003-02-07 11:38:55 51°20.834 2°38.286 86.5 12.5 85.7 23.2
2003-02-07 11:39:55 51°20.842 2°38.623 88.1 12.8 87.7 24.1
2003-02-07 11:41:04 51°20.845 2°39.012 90 12.7 88.1 24.5
2003-02-07 11:42:04 51°20.847 2°39.351 90.8 12.8 90 24.3
2003-02-07 11:43:04 51°20.849 2°39.694 90.4 12.9 89.8 24.8
2003-02-07 11:44:04 51°20.85 2°40.043 91.2 13 90.1 26.4
2003-02-07 11:45:04 51°20.852 2°40.386 90.7 12.8 89.8 26.3
2003-02-07 11:46:09 51°20.847 2°40.76 92 12.9 91.5 25.7
2003-02-07 11:47:09 51°20.841 2°41.105 92.7 13 92.3 25.7
2003-02-07 11:48:08 51°20.835 2°41.446 92.1 13 91.1 25.2
2003-02-07 11:49:08 51°20.83 2°41.789 92.1 12.8 91.3 21.1
2003-02-07 11:50:08 51°20.781 2°42.117 113.6 13 114.7 18
2003-02-07 11:51:09 51°20.677 2°42.433 116 13.1 118.1 18.9
2003-02-07 11:52:09 51°20.576 2°42.747 114.4 13.2 115.1 21.8
2003-02-07 11:53:15 51°20.469 2°43.089 116.1 13.1 117.4 24.7
2003-02-07 11:54:14 51°20.375 2°43.394 115.2 13.1 116.4 26.1
2003-02-07 11:55:17 51°20.274 2°43.719 115.1 13.1 116.3 26.3
2003-02-07 11:56:17 51°20.179 2°44.029 114.6 13 116 25.1
2003-02-07 11:57:17 51°20.087 2°44.342 114.8 13.1 114.1 25
2003-02-07 11:58:16 51°19.996 2°44.654 114.1 13.2 114.7 24
2003-02-07 11:59:17 51°19.899 2°44.977 115.1 13.4 116.2 22
2003-02-07 12:00:15 51°19.811 2°45.282 114 13.1 114.9 17.2
2003-02-07 12:01:17 51°19.718 2°45.606 113.9 12.9 114.6 12.1
2003-02-07 12:02:17 51°19.624 2°45.914 113.6 12.9 115.5 13.8
2003-02-07 12:03:19 51°19.526 2°46.236 114.4 12.9 116.5 17.9
2003-02-07 12:04:24 51°19.419 2°46.569 114.3 13 116.1 20.4
2003-02-07 12:05:21 51°19.331 2°46.866 113.6 12.9 114.6 20.9
2003-02-07 12:06:21 51°19.237 2°47.176 113.9 13.1 114.9 20.9
2003-02-07 12:07:25 51°19.136 2°47.512 113.9 12.8 115.4 19.7
2003-02-07 12:08:27 51°19.037 2°47.836 115.3 13.2 116.3 18
2003-02-07 12:09:27 51°18.944 2°48.15 113.3 12.8 114.5 16.1
2003-02-07 12:10:27 51°18.851 2°48.46 113.3 13 114.6 13
2003-02-07 12:11:27 51°18.757 2°48.768 114.8 12.8 116.4 11.5
2003-02-07 12:12:27 51°18.667 2°49.075 114.2 12.6 115 10.4
2003-02-07 12:13:37 51°18.556 2°49.436 114.6 13 116.2 10.7
2003-02-07 12:14:37 51°18.649 2°49.621 6.8 11 0.9 11.2
2003-02-07 12:15:39 51°18.713 2°49.328 262.1 13.7 259.9 10.1
2003-02-07 12:16:38 51°18.619 2°49.079 225.8 9.2 226.3 11
2003-02-07 12:17:38 51°18.56 2°48.998 187 1.5 233.1 10.7
2003-02-07 12:18:38 51°18.542 2°48.972 179.8 1.6 212.5 10.5
2003-02-07 12:19:39 51°18.52 2°48.952 173.1 1.4 209.8 10.6
2003-02-07 12:20:39 51°18.5 2°48.935 171.9 1.4 207.3 10.4
2003-02-07 12:21:38 51°18.48 2°48.918 172 1.4 207.8 10.3
2003-02-07 12:22:38 51°18.461 2°48.9 170.2 1.3 209.5 10.4
2003-02-07 12:23:44 51°18.44 2°48.882 170.3 1.3 209.3 10.4
2003-02-07 12:24:46 51°18.416 2°48.868 164.5 1.7 197.6 10.5
2003-02-07 12:25:45 51°18.391 2°48.854 166.1 1.6 201.5 10.5
2003-02-07 12:26:45 51°18.368 2°48.838 169.3 1.5 203.9 10.6
2003-02-07 12:27:43 51°18.348 2°48.822 171.2 1.4 207.4 10.3
2003-02-07 12:28:45 51°18.326 2°48.804 172.4 1.4 209.9 10.4
2003-02-07 12:29:49 51°18.306 2°48.784 172.6 1.3 211.5 10.3
2003-02-07 12:30:49 51°18.284 2°48.767 169.5 2.1 192.3 10.2
2003-02-07 12:31:49 51°18.215 2°48.857 112.6 7.6 119.5 10.4
2003-02-07 12:32:49 51°18.203 2°49.122 90.6 11.8 91.6 10.9
2003-02-07 12:33:53 51°18.203 2°49.478 88.9 12.6 89.6 12.4
2003-02-07 12:34:54 51°18.201 2°49.815 90.1 12.4 90.4 13.8
2003-02-07 12:35:54 51°18.198 2°50.145 90 12.4 90.9 13.9
2003-02-07 12:36:54 51°18.183 2°50.476 101.4 12.7 101.9 13.5
2003-02-07 12:38:00 51°18.1 2°50.829 108.4 13.1 112.2 12.7
2003-02-07 12:38:57 51°18.022 2°51.129 110.3 12.8 113.9 11.8
2003-02-07 12:40:02 51°17.93 2°51.467 109.4 12.8 113 10.3
2003-02-07 12:41:07 51°17.813 2°51.79 127.4 13.5 132.1 10.3
2003-02-07 12:42:07 51°17.638 2°52.026 140.2 14.1 143.6 10.2
2003-02-07 12:43:07 51°17.441 2°52.227 148.9 14.3 151.7 10.2
2003-02-07 12:44:07 51°17.228 2°52.399 151 14.4 153.1 10
2003-02-07 12:45:07 51°17.017 2°52.572 150.8 14.3 152.8 9.7
2003-02-07 12:46:07 51°16.806 2°52.748 150.1 14.1 150.8 9.5
2003-02-07 12:47:06 51°16.613 2°52.959 139.3 14.3 139.9 11.5
2003-02-07 12:48:14 51°16.408 2°53.233 138.7 14 139.4 12.2
2003-02-07 12:49:14 51°16.23 2°53.465 140 13.7 141.3 12
2003-02-07 12:50:19 51°16.034 2°53.708 145.1 13.7 145.9 11.7
2003-02-07 12:51:19 51°15.83 2°53.877 150.2 13.8 152.8 11.1
2003-02-07 12:52:20 51°15.62 2°54.051 151 14.1 152.4 10.4
2003-02-07 12:53:20 51°15.406 2°54.193 155.9 13.9 156.3 9.5
2003-02-07 12:54:20 51°15.193 2°54.325 159.3 13.8 159.9 8.7
2003-02-07 12:55:20 51°14.989 2°54.443 161.8 12.8 161.9 8.6
2003-02-07 12:56:20 51°14.794 2°54.56 158.3 12.5 158.9 9.5
2003-02-07 12:57:20 51°14.608 2°54.703 149.1 12.3 148.4 9.5
2003-02-07 12:58:20 51°14.46 2°54.925 135.2 12.2 133 10
2003-02-07 12:59:20 51°14.326 2°55.167 133.9 11.7 130.9 -999
2003-02-07 13:00:20 51°14.22 2°55.331 148 7.3 143.2 -999
2003-02-07 13:01:21 51°14.128 2°55.413 157.9 5.8 154 -999
2003-02-07 13:02:20 51°14.046 2°55.473 159 5.4 155.4 -999
2003-02-07 13:03:20 51°13.962 2°55.535 159.4 5.7 155.1 9.7
2003-02-07 13:04:21 51°13.874 2°55.598 158.1 5.7 155.1 -999
2003-02-07 13:05:21 51°13.791 2°55.664 153.8 5.5 151.5 -999